Time;durP1;ratioP1;P1;durP2;ratioP2;P2;SDS_P1;SDS_P2;PMS_P1;PMS_P2;Temp;Humidity;BMP_temperature;BMP_pressure;BME280_temperature;BME280_humidity;BME280_pressure;Samples;Min_cycle;Max_cycle;Signal;HPM_P1;HPM_P2
2022/11/16 08:26:40;;;;;;;29.73;15.73;;;;;;;;;;5070717;28;20409;-75
2022/11/16 08:29:06;;;;;;;23.25;12.27;;;;;;;;;;5075294;28;20153;-76
2022/11/16 08:31:32;;;;;;;15.95;7.15;;;;;;;;;;5069415;28;20082;-75
2022/11/16 08:33:59;;;;;;;18.10;5.97;;;;;;;;;;5072011;28;20046;-76
2022/11/16 08:36:26;;;;;;;10.60;3.92;;;;;;;;;;5071761;28;20561;-77
2022/11/16 08:38:52;;;;;;;19.10;6.78;;;;;;;;;;5072032;28;20483;-74
2022/11/16 08:41:19;;;;;;;23.42;6.38;;;;;;;;;;5071494;28;20037;-76
2022/11/16 08:43:46;;;;;;;12.60;4.60;;;;;;;;;;5071283;28;20051;-76
2022/11/16 08:46:12;;;;;;;11.80;3.55;;;;;;;;;;5071432;28;20098;-77
2022/11/16 08:48:39;;;;;;;13.15;3.35;;;;;;;;;;5071843;28;20157;-76
2022/11/16 08:51:06;;;;;;;26.02;11.38;;;;;;;;;;5071715;28;20025;-75
2022/11/16 08:53:32;;;;;;;39.30;15.82;;;;;;;;;;5071428;28;20037;-75
2022/11/16 08:56:02;;;;;;;24.70;9.68;;;;;;;;;;5070362;28;20048;-74
2022/11/16 08:58:28;;;;;;;17.58;6.53;;;;;;;;;;5070477;28;20404;-74
2022/11/16 09:00:55;;;;;;;11.15;4.35;;;;;;;;;;5071063;28;20044;-74
2022/11/16 09:03:21;;;;;;;13.38;4.65;;;;;;;;;;5070122;28;20044;-74
2022/11/16 09:05:47;;;;;;;9.77;4.10;;;;;;;;;;5070346;28;20094;-74
2022/11/16 09:08:13;;;;;;;18.05;6.35;;;;;;;;;;5071298;28;20084;-73
2022/11/16 09:10:39;;;;;;;15.68;6.50;;;;;;;;;;5070443;28;20075;-73
2022/11/16 09:13:05;;;;;;;15.05;3.90;;;;;;;;;;5071370;28;20051;-73
2022/11/16 09:15:31;;;;;;;8.65;3.20;;;;;;;;;;5070560;28;20042;-74
2022/11/16 09:17:57;;;;;;;9.75;2.60;;;;;;;;;;5071142;28;20601;-74
2022/11/16 09:20:25;;;;;;;12.95;2.40;;;;;;;;;;5070680;28;20071;-74
2022/11/16 09:22:51;;;;;;;13.15;2.97;;;;;;;;;;5070649;28;20037;-74
2022/11/16 09:25:17;;;;;;;9.75;2.95;;;;;;;;;;5069510;28;20091;-74
2022/11/16 09:27:44;;;;;;;7.97;2.38;;;;;;;;;;5070650;28;20492;-74
2022/11/16 09:30:10;;;;;;;12.05;2.97;;;;;;;;;;5069695;28;20051;-74
2022/11/16 09:32:36;;;;;;;9.82;2.30;;;;;;;;;;5069833;28;20036;-74
2022/11/16 09:35:02;;;;;;;8.00;2.25;;;;;;;;;;5070034;28;20048;-73
2022/11/16 09:37:29;;;;;;;9.27;1.98;;;;;;;;;;5059575;28;20053;-73
2022/11/16 09:39:56;;;;;;;13.40;2.08;;;;;;;;;;5056252;28;20091;-74
2022/11/16 09:42:25;;;;;;;5.93;1.70;;;;;;;;;;5057143;28;20040;-73
2022/11/16 09:44:58;;;;;;;9.93;2.38;;;;;;;;;;5056152;28;20490;-74
2022/11/16 09:47:27;;;;;;;7.55;1.73;;;;;;;;;;5040095;28;20033;-73
2022/11/16 09:49:54;;;;;;;13.48;7.72;;;;;;;;;;5056566;28;20500;-73
2022/11/16 09:52:26;;;;;;;7.68;3.30;;;;;;;;;;5056873;28;20116;-74
2022/11/16 09:54:53;;;;;;;11.15;5.10;;;;;;;;;;5056199;28;20106;-74
2022/11/16 09:57:24;;;;;;;11.15;2.50;;;;;;;;;;5056221;28;20049;-74
2022/11/16 09:59:54;;;;;;;9.70;2.30;;;;;;;;;;5056656;28;20504;-74
2022/11/16 10:02:46;;;;;;;9.85;2.65;;;;;;;;;;5055296;28;20037;-74
2022/11/16 10:05:23;;;;;;;5.15;2.00;;;;;;;;;;5032792;28;20048;-74
2022/11/16 10:07:52;;;;;;;6.50;2.05;;;;;;;;;;5056421;28;20063;-74
2022/11/16 10:10:33;;;;;;;7.43;2.20;;;;;;;;;;5055539;28;20037;-74
2022/11/16 10:13:12;;;;;;;7.38;2.30;;;;;;;;;;5056299;28;20150;-74
2022/11/16 10:15:41;;;;;;;8.38;1.65;;;;;;;;;;5055641;28;20045;-74
2022/11/16 10:18:26;;;;;;;9.43;2.13;;;;;;;;;;5056497;28;20045;-74
2022/11/16 10:21:10;;;;;;;5.28;1.73;;;;;;;;;;5055829;28;20075;-74
2022/11/16 10:23:52;;;;;;;10.13;1.75;;;;;;;;;;5036630;28;20037;-74
2022/11/16 10:26:21;;;;;;;10.60;1.95;;;;;;;;;;5042161;28;20115;-74
2022/11/16 10:28:57;;;;;;;3.90;1.77;;;;;;;;;;5049433;28;20052;-74
2022/11/16 10:31:27;;;;;;;4.63;1.58;;;;;;;;;;5049355;28;20045;-73
2022/11/16 10:33:54;;;;;;;7.78;1.67;;;;;;;;;;5052816;28;20507;-73
2022/11/16 10:36:21;;;;;;;11.15;2.25;;;;;;;;;;5054406;28;20049;-73
2022/11/16 10:38:47;;;;;;;6.10;1.55;;;;;;;;;;5053260;28;20045;-73
2022/11/16 10:41:18;;;;;;;5.90;1.17;;;;;;;;;;5053778;28;20040;-73
2022/11/16 10:43:44;;;;;;;;;;;;;;;;;;5055796;28;20040;-73
2022/11/16 10:46:25;;;;;;;7.72;1.40;;;;;;;;;;5055507;28;19977;-73
2022/11/16 10:48:51;;;;;;;;;;;;;;;;;;5055479;28;20055;-74
2022/11/16 10:51:17;;;;;;;4.70;1.13;;;;;;;;;;5055927;28;20003;-74
2022/11/16 10:53:44;;;;;;;3.47;1.10;;;;;;;;;;5054929;28;20575;-73
2022/11/16 10:56:13;;;;;;;8.43;2.28;;;;;;;;;;5055304;28;20400;-73
2022/11/16 10:58:51;;;;;;;6.05;1.40;;;;;;;;;;5055891;28;20041;-73
2022/11/16 11:01:36;;;;;;;2.83;1.25;;;;;;;;;;5055954;28;20051;-73
2022/11/16 11:04:28;;;;;;;4.60;1.10;;;;;;;;;;5054293;28;20040;-73
2022/11/16 11:06:55;;;;;;;5.22;1.20;;;;;;;;;;5054237;28;20041;-73
2022/11/16 11:09:34;;;;;;;6.43;1.10;;;;;;;;;;5055201;28;20044;-73
2022/11/16 11:15:02;;;;;;;3.50;1.00;;;;;;;;;;5054503;28;20087;-73
2022/11/16 11:17:29;;;;;;;8.90;2.38;;;;;;;;;;5054612;28;20404;-73
2022/11/16 11:20:05;;;;;;;9.00;4.72;;;;;;;;;;5054521;28;20045;-73
2022/11/16 11:22:41;;;;;;;5.55;2.08;;;;;;;;;;5054735;28;20136;-73
2022/11/16 11:25:18;;;;;;;8.35;3.13;;;;;;;;;;5055312;28;20120;-74
2022/11/16 11:27:45;;;;;;;9.73;2.30;;;;;;;;;;5035880;28;20045;-73
2022/11/16 11:30:18;;;;;;;3.13;1.23;;;;;;;;;;5035590;28;20076;-73
2022/11/16 11:32:45;;;;;;;6.90;2.63;;;;;;;;;;5034895;28;20040;-73
2022/11/16 11:35:29;;;;;;;6.00;1.20;;;;;;;;;;5034978;28;20053;-73
2022/11/16 11:37:56;;;;;;;6.70;3.40;;;;;;;;;;5044488;28;20126;-73
2022/11/16 11:40:26;;;;;;;5.07;1.60;;;;;;;;;;5054545;28;20466;-73
2022/11/16 11:42:53;;;;;;;4.45;1.15;;;;;;;;;;5054476;28;20037;-74
2022/11/16 11:45:22;;;;;;;7.05;2.90;;;;;;;;;;5054199;28;20076;-74
2022/11/16 11:47:53;;;;;;;5.35;1.10;;;;;;;;;;5054288;28;20040;-74
2022/11/16 11:50:20;;;;;;;2.15;0.90;;;;;;;;;;5054303;28;20071;-73
2022/11/16 11:52:47;;;;;;;3.53;0.80;;;;;;;;;;5052306;28;20116;-74
2022/11/16 11:55:15;;;;;;;7.00;0.85;;;;;;;;;;5052643;28;20119;-72
2022/11/16 11:57:43;;;;;;;3.15;1.08;;;;;;;;;;5054064;28;20412;-73
2022/11/16 12:00:12;;;;;;;1.85;0.80;;;;;;;;;;5054790;28;20040;-73
2022/11/16 12:03:00;;;;;;;2.47;0.73;;;;;;;;;;5053487;28;20643;-73
2022/11/16 12:05:33;;;;;;;3.47;0.80;;;;;;;;;;5054247;28;20130;-73
2022/11/16 12:08:19;;;;;;;4.78;0.70;;;;;;;;;;5053741;28;20037;-72
2022/11/16 12:10:51;;;;;;;2.08;0.93;;;;;;;;;;5053656;28;20082;-73
2022/11/16 12:13:30;;;;;;;3.95;1.05;;;;;;;;;;5053715;28;20064;-74
2022/11/16 12:16:22;;;;;;;3.65;0.70;;;;;;;;;;5053545;28;20045;-73
2022/11/16 12:18:51;;;;;;;4.72;1.13;;;;;;;;;;5045573;28;20056;-73
2022/11/16 12:21:17;;;;;;;2.47;0.95;;;;;;;;;;5053764;28;20037;-73
2022/11/16 12:23:52;;;;;;;4.28;0.73;;;;;;;;;;5053767;28;20052;-73
2022/11/16 12:26:18;;;;;;;2.25;0.52;;;;;;;;;;5054901;28;20055;-73
2022/11/16 12:29:07;;;;;;;3.00;0.70;;;;;;;;;;5053953;28;20045;-73
2022/11/16 12:31:51;;;;;;;1.88;0.60;;;;;;;;;;5054353;28;20045;-73
2022/11/16 12:34:29;;;;;;;4.00;0.82;;;;;;;;;;5053054;28;20037;-74
2022/11/16 12:37:13;;;;;;;1.52;0.75;;;;;;;;;;5051035;28;20707;-73
2022/11/16 12:39:44;;;;;;;3.88;0.80;;;;;;;;;;5046620;28;20041;-74
2022/11/16 12:42:10;;;;;;;1.75;0.60;;;;;;;;;;5052043;28;20163;-74
2022/11/16 12:44:59;;;;;;;2.22;0.50;;;;;;;;;;5054508;28;20550;-74
2022/11/16 12:47:25;;;;;;;2.85;0.60;;;;;;;;;;5045910;28;20049;-74
2022/11/16 12:49:57;;;;;;;3.50;0.43;;;;;;;;;;5053819;28;20045;-74
2022/11/16 12:52:32;;;;;;;3.45;0.90;;;;;;;;;;5054340;28;20047;-73
2022/11/16 12:55:08;;;;;;;1.48;0.70;;;;;;;;;;5054087;28;20062;-74
2022/11/16 12:57:43;;;;;;;3.45;0.50;;;;;;;;;;5053609;28;20059;-73
2022/11/16 13:00:12;;;;;;;1.65;0.60;;;;;;;;;;5054214;28;20037;-73
2022/11/16 13:02:44;;;;;;;2.13;0.45;;;;;;;;;;5054337;28;20041;-73
2022/11/16 13:05:14;;;;;;;0.73;0.32;;;;;;;;;;5054258;28;20115;-73
2022/11/16 13:07:43;;;;;;;3.25;0.80;;;;;;;;;;5053358;28;20116;-74
2022/11/16 13:10:21;;;;;;;1.65;0.60;;;;;;;;;;5053729;28;20120;-74
2022/11/16 13:12:48;;;;;;;1.30;0.60;;;;;;;;;;5040408;28;20037;-73
2022/11/16 13:15:18;;;;;;;2.72;0.50;;;;;;;;;;5057354;28;21381;-73
2022/11/16 13:17:50;;;;;;;1.08;0.57;;;;;;;;;;5057621;28;20136;-70
2022/11/16 13:20:33;;;;;;;2.35;0.57;;;;;;;;;;5057259;28;20502;-71
2022/11/16 13:23:05;;;;;;;1.80;0.40;;;;;;;;;;5057100;28;20102;-70
2022/11/16 13:25:35;;;;;;;2.92;0.50;;;;;;;;;;5071536;28;20052;-71
2022/11/16 13:28:22;;;;;;;2.10;0.40;;;;;;;;;;5037846;28;20124;-70
2022/11/16 13:31:10;;;;;;;3.90;0.45;;;;;;;;;;5051350;28;20069;-69
2022/11/16 13:33:48;;;;;;;1.13;0.50;;;;;;;;;;5057640;28;20044;-69
2022/11/16 13:36:33;;;;;;;1.98;0.70;;;;;;;;;;5055292;28;20045;-69
2022/11/16 13:38:59;;;;;;;1.67;0.60;;;;;;;;;;5055305;28;20067;-70
2022/11/16 13:41:36;;;;;;;1.92;0.70;;;;;;;;;;5055887;28;20052;-69
2022/11/16 13:44:04;;;;;;;3.55;0.90;;;;;;;;;;5056263;28;20041;-70
2022/11/16 13:46:37;;;;;;;2.35;0.65;;;;;;;;;;5056790;28;20048;-71
2022/11/16 13:49:04;;;;;;;2.90;0.70;;;;;;;;;;5057257;28;20041;-70
2022/11/16 13:51:30;;;;;;;5.97;1.55;;;;;;;;;;5056406;28;20045;-70
2022/11/16 13:53:56;;;;;;;3.97;0.77;;;;;;;;;;5056410;28;20518;-71
2022/11/16 13:56:22;;;;;;;3.60;1.25;;;;;;;;;;5056909;28;20068;-70
2022/11/16 13:58:50;;;;;;;3.25;0.80;;;;;;;;;;5057139;28;20049;-73
2022/11/16 14:01:17;;;;;;;0.82;0.50;;;;;;;;;;5056413;28;20090;-70
2022/11/16 14:04:03;;;;;;;2.67;0.50;;;;;;;;;;5056042;28;20496;-70
2022/11/16 14:06:29;;;;;;;2.47;0.68;;;;;;;;;;5056075;28;20045;-71
2022/11/16 14:08:56;;;;;;;2.60;0.63;;;;;;;;;;5057260;28;20041;-71
2022/11/16 14:11:38;;;;;;;2.75;0.60;;;;;;;;;;5067685;28;20125;-71
2022/11/16 14:14:11;;;;;;;1.95;0.60;;;;;;;;;;5056221;28;20049;-70
2022/11/16 14:16:44;;;;;;;1.77;0.63;;;;;;;;;;5056361;28;20395;-70
2022/11/16 14:19:28;;;;;;;3.47;0.43;;;;;;;;;;5055903;28;20419;-71
2022/11/16 14:22:02;;;;;;;4.60;0.90;;;;;;;;;;5056242;28;20514;-69
2022/11/16 14:24:35;;;;;;;1.33;0.43;;;;;;;;;;5055746;28;20095;-70
2022/11/16 14:27:07;;;;;;;1.98;0.60;;;;;;;;;;5055910;28;20125;-69
2022/11/16 14:29:52;;;;;;;3.42;1.08;;;;;;;;;;5057063;28;20041;-69
2022/11/16 14:32:24;;;;;;;5.15;1.27;;;;;;;;;;5055763;28;20064;-69
2022/11/16 14:34:51;;;;;;;3.67;0.75;;;;;;;;;;5055078;28;20080;-69
2022/11/16 14:37:29;;;;;;;2.50;0.50;;;;;;;;;;5056400;28;20070;-70
2022/11/16 14:40:13;;;;;;;1.75;0.60;;;;;;;;;;5054340;28;20041;-70
2022/11/16 14:42:45;;;;;;;1.42;0.40;;;;;;;;;;5054754;28;20056;-70
2022/11/16 14:45:22;;;;;;;2.67;1.02;;;;;;;;;;5055317;28;20048;-70
2022/11/16 14:47:49;;;;;;;0.80;0.50;;;;;;;;;;5055930;28;20043;-70
2022/11/16 14:50:22;;;;;;;1.58;0.68;;;;;;;;;;5056215;28;20045;-70
2022/11/16 14:52:50;;;;;;;2.40;0.70;;;;;;;;;;5055426;28;20053;-72
2022/11/16 14:55:18;;;;;;;2.75;0.73;;;;;;;;;;5051603;28;20060;-73
2022/11/16 14:57:45;;;;;;;4.82;0.88;;;;;;;;;;5036679;28;20038;-72
2022/11/16 15:00:17;;;;;;;2.90;1.02;;;;;;;;;;5035132;28;20566;-72
2022/11/16 15:02:45;;;;;;;3.08;1.17;;;;;;;;;;5049125;28;20397;-73
2022/11/16 15:05:17;;;;;;;2.92;0.80;;;;;;;;;;5055145;28;20048;-73
2022/11/16 15:07:44;;;;;;;3.25;1.15;;;;;;;;;;5048498;28;20037;-73
2022/11/16 15:10:15;;;;;;;1.42;0.70;;;;;;;;;;5055716;28;20071;-73
2022/11/16 15:12:43;;;;;;;4.45;0.80;;;;;;;;;;5055869;28;20179;-73
2022/11/16 15:15:12;;;;;;;2.95;0.80;;;;;;;;;;5054395;28;20043;-73
2022/11/16 15:17:41;;;;;;;5.10;1.38;;;;;;;;;;5054603;28;20045;-72
2022/11/16 15:20:18;;;;;;;27.85;10.10;;;;;;;;;;5054756;28;20029;-73
2022/11/16 15:22:46;;;;;;;4.07;1.77;;;;;;;;;;5054917;28;20107;-73
2022/11/16 15:25:27;;;;;;;5.60;1.05;;;;;;;;;;5054743;28;20084;-73
2022/11/16 15:27:54;;;;;;;5.20;2.30;;;;;;;;;;5037923;28;20042;-73
2022/11/16 15:30:22;;;;;;;5.20;1.27;;;;;;;;;;5035242;28;20045;-73
2022/11/16 15:32:49;;;;;;;7.07;3.05;;;;;;;;;;5045292;28;20091;-73
2022/11/16 15:35:21;;;;;;;6.30;3.30;;;;;;;;;;5053477;28;20098;-73
2022/11/16 15:37:47;;;;;;;10.90;7.25;;;;;;;;;;5053287;28;20041;-72
2022/11/16 15:40:14;;;;;;;34.70;21.15;;;;;;;;;;5054939;28;20056;-72
2022/11/16 15:42:41;;;;;;;8.88;4.82;;;;;;;;;;5053411;28;20036;-73
2022/11/16 15:45:23;;;;;;;8.85;4.80;;;;;;;;;;5052455;28;20053;-73
2022/11/16 15:47:52;;;;;;;6.90;2.85;;;;;;;;;;5043451;28;20497;-73
2022/11/16 15:50:19;;;;;;;12.52;4.90;;;;;;;;;;5040223;28;20064;-72
2022/11/16 15:52:55;;;;;;;13.43;4.53;;;;;;;;;;5053809;28;20444;-73
2022/11/16 15:55:40;;;;;;;23.02;7.82;;;;;;;;;;5054113;28;20045;-72
2022/11/16 15:58:13;;;;;;;31.95;10.60;;;;;;;;;;5053984;28;20048;-73
2022/11/16 16:00:40;;;;;;;61.50;24.95;;;;;;;;;;5054171;28;20045;-72
2022/11/16 16:03:26;;;;;;;39.42;16.88;;;;;;;;;;5054149;28;20388;-73
2022/11/16 16:05:53;;;;;;;30.25;14.98;;;;;;;;;;5053759;28;20439;-72
2022/11/16 16:08:45;;;;;;;27.38;12.15;;;;;;;;;;5054331;28;20033;-73
2022/11/16 16:11:25;;;;;;;49.58;20.60;;;;;;;;;;5049985;28;20048;-73
2022/11/16 16:13:58;;;;;;;19.70;8.37;;;;;;;;;;5054524;28;20107;-73
2022/11/16 16:16:34;;;;;;;23.95;9.52;;;;;;;;;;5054513;28;20363;-73
2022/11/16 16:19:01;;;;;;;23.40;10.27;;;;;;;;;;5053989;28;20044;-73
2022/11/16 16:21:40;;;;;;;14.18;6.28;;;;;;;;;;5054058;28;20518;-73
2022/11/16 16:24:07;;;;;;;16.13;6.78;;;;;;;;;;5053740;28;20092;-71
2022/11/16 16:26:33;;;;;;;18.42;6.32;;;;;;;;;;5047846;28;20049;-72
2022/11/16 16:29:00;;;;;;;11.32;4.53;;;;;;;;;;5039355;28;20042;-71
2022/11/16 16:31:26;;;;;;;5.60;2.72;;;;;;;;;;5034434;28;20041;-72
2022/11/16 16:33:54;;;;;;;10.63;4.28;;;;;;;;;;5052005;28;20041;-73
2022/11/16 16:36:20;;;;;;;38.47;17.75;;;;;;;;;;5053757;28;20045;-73
2022/11/16 16:38:46;;;;;;;74.47;35.55;;;;;;;;;;5053547;28;20119;-72
2022/11/16 16:41:16;;;;;;;27.92;12.30;;;;;;;;;;5053823;28;20044;-72
2022/11/16 16:43:42;;;;;;;18.48;9.98;;;;;;;;;;5053850;28;20037;-73
2022/11/16 16:46:11;;;;;;;22.15;10.48;;;;;;;;;;5053533;28;20491;-73
2022/11/16 16:48:38;;;;;;;14.77;7.13;;;;;;;;;;5058328;28;20044;-73
2022/11/16 16:51:04;;;;;;;12.98;5.10;;;;;;;;;;5057567;28;20037;-73
2022/11/16 16:53:30;;;;;;;27.40;15.48;;;;;;;;;;5057984;28;20037;-73
2022/11/16 16:55:56;;;;;;;30.42;16.23;;;;;;;;;;5057304;28;20047;-72
2022/11/16 16:58:22;;;;;;;23.38;18.02;;;;;;;;;;5057365;28;20094;-72
2022/11/16 17:00:48;;;;;;;49.70;32.30;;;;;;;;;;5057453;28;20072;-71
2022/11/16 17:03:14;;;;;;;58.70;37.95;;;;;;;;;;5057349;28;20036;-71
2022/11/16 17:05:41;;;;;;;49.95;30.25;;;;;;;;;;5064159;28;20155;-72
2022/11/16 17:08:07;;;;;;;22.88;12.07;;;;;;;;;;5056916;28;20036;-71
2022/11/16 17:10:33;;;;;;;19.20;11.55;;;;;;;;;;5056502;28;20045;-71
2022/11/16 17:13:01;;;;;;;26.20;13.85;;;;;;;;;;5056935;28;20045;-72
2022/11/16 17:15:28;;;;;;;29.98;10.95;;;;;;;;;;5056538;28;20478;-72
2022/11/16 17:17:54;;;;;;;22.55;9.55;;;;;;;;;;5057089;28;20065;-71
2022/11/16 17:20:20;;;;;;;14.90;6.32;;;;;;;;;;5056953;28;20492;-72
2022/11/16 17:22:46;;;;;;;27.10;18.30;;;;;;;;;;5056546;28;20034;-72
2022/11/16 17:25:13;;;;;;;14.48;6.38;;;;;;;;;;5056535;28;20059;-73
2022/11/16 17:27:44;;;;;;;12.10;6.07;;;;;;;;;;5056600;28;20120;-72
2022/11/16 17:30:11;;;;;;;11.40;4.88;;;;;;;;;;5056694;28;20041;-73
2022/11/16 17:32:37;;;;;;;24.73;15.88;;;;;;;;;;5054191;28;20032;-72
2022/11/16 17:35:04;;;;;;;15.25;6.82;;;;;;;;;;5056381;28;20124;-73
2022/11/16 17:37:30;;;;;;;20.05;9.32;;;;;;;;;;5057587;28;20045;-72
2022/11/16 17:39:56;;;;;;;9.98;4.20;;;;;;;;;;5056462;28;20037;-72
2022/11/16 17:42:22;;;;;;;12.98;3.92;;;;;;;;;;5056849;28;20051;-73
2022/11/16 17:44:48;;;;;;;8.65;4.20;;;;;;;;;;5056410;28;20048;-73
2022/11/16 17:47:14;;;;;;;11.82;4.38;;;;;;;;;;5056820;28;20108;-73
2022/11/16 17:49:41;;;;;;;9.30;4.18;;;;;;;;;;5056353;28;20516;-72
2022/11/16 17:52:07;;;;;;;15.40;6.65;;;;;;;;;;5056999;28;20048;-72
2022/11/16 17:54:33;;;;;;;10.52;4.55;;;;;;;;;;5056448;28;20052;-73
2022/11/16 17:56:59;;;;;;;36.05;14.80;;;;;;;;;;5056023;28;20041;-73
2022/11/16 17:59:25;;;;;;;25.40;9.75;;;;;;;;;;5055571;28;20057;-73
2022/11/16 18:01:51;;;;;;;16.60;7.07;;;;;;;;;;5056041;28;20036;-74
2022/11/16 18:04:17;;;;;;;15.13;6.28;;;;;;;;;;5055803;28;20391;-75
2022/11/16 18:06:43;;;;;;;8.98;3.58;;;;;;;;;;5055706;28;20048;-75
2022/11/16 18:09:10;;;;;;;13.40;4.28;;;;;;;;;;5056665;28;20427;-76
2022/11/16 18:11:38;;;;;;;7.78;4.05;;;;;;;;;;5056791;28;20072;-76
2022/11/16 18:14:06;;;;;;;7.28;3.00;;;;;;;;;;5056311;28;20036;-76
2022/11/16 18:16:33;;;;;;;9.30;4.70;;;;;;;;;;5056522;28;20056;-73
2022/11/16 18:19:04;;;;;;;8.45;4.32;;;;;;;;;;5056055;28;20049;-72
2022/11/16 18:21:32;;;;;;;12.50;6.35;;;;;;;;;;5056855;28;20051;-73
2022/11/16 18:23:59;;;;;;;11.20;5.43;;;;;;;;;;5048524;28;20100;-72
2022/11/16 18:26:25;;;;;;;11.75;5.82;;;;;;;;;;5054107;28;20049;-73
2022/11/16 18:28:52;;;;;;;12.70;4.95;;;;;;;;;;5033766;28;20045;-73
2022/11/16 18:31:19;;;;;;;14.48;6.22;;;;;;;;;;5038084;28;20089;-72
2022/11/16 18:33:47;;;;;;;9.60;5.40;;;;;;;;;;5054735;28;20036;-72
2022/11/16 18:36:14;;;;;;;13.68;5.30;;;;;;;;;;5054961;28;20040;-71
2022/11/16 18:38:40;;;;;;;13.43;5.85;;;;;;;;;;5055375;28;20162;-71
2022/11/16 18:41:13;;;;;;;13.55;9.32;;;;;;;;;;5053921;28;20049;-72
2022/11/16 18:43:48;;;;;;;13.40;5.35;;;;;;;;;;5054592;28;20114;-72
2022/11/16 18:46:14;;;;;;;9.93;6.60;;;;;;;;;;5043548;28;20163;-72
2022/11/16 18:48:41;;;;;;;17.55;10.68;;;;;;;;;;5054388;28;20037;-72
2022/11/16 18:51:09;;;;;;;13.77;9.50;;;;;;;;;;5054317;28;20492;-73
2022/11/16 18:53:35;;;;;;;12.45;5.38;;;;;;;;;;5051184;28;20507;-72
2022/11/16 18:56:02;;;;;;;14.50;6.40;;;;;;;;;;5054442;28;20139;-72
2022/11/16 18:58:28;;;;;;;10.27;5.95;;;;;;;;;;5051954;28;20040;-76
2022/11/16 19:00:54;;;;;;;11.43;5.60;;;;;;;;;;5052294;28;20033;-76
2022/11/16 19:03:20;;;;;;;13.88;6.13;;;;;;;;;;5054516;28;20059;-77
2022/11/16 19:05:55;;;;;;;10.95;5.95;;;;;;;;;;5054680;28;20044;-76
2022/11/16 19:08:21;;;;;;;18.67;8.13;;;;;;;;;;5054067;28;20095;-76
2022/11/16 19:10:47;;;;;;;15.20;7.50;;;;;;;;;;5034350;28;20079;-76
2022/11/16 19:13:13;;;;;;;11.02;4.93;;;;;;;;;;5048720;28;20033;-76
2022/11/16 19:15:40;;;;;;;11.65;6.35;;;;;;;;;;5054724;28;20036;-76
2022/11/16 19:18:06;;;;;;;9.32;5.85;;;;;;;;;;5055398;28;20143;-76
2022/11/16 19:20:32;;;;;;;9.55;6.57;;;;;;;;;;5053835;28;20044;-76
2022/11/16 19:22:58;;;;;;;12.25;6.38;;;;;;;;;;5055300;28;20045;-76
2022/11/16 19:25:25;;;;;;;17.85;6.88;;;;;;;;;;5054658;28;20049;-76
2022/11/16 19:27:51;;;;;;;12.85;8.82;;;;;;;;;;5054515;28;20044;-76
2022/11/16 19:30:17;;;;;;;12.52;7.80;;;;;;;;;;5055509;28;20075;-76
2022/11/16 19:32:44;;;;;;;49.58;23.90;;;;;;;;;;5055288;28;20040;-76
2022/11/16 19:35:10;;;;;;;33.17;17.10;;;;;;;;;;5054611;28;20043;-76
2022/11/16 19:37:39;;;;;;;22.70;10.80;;;;;;;;;;5054088;28;20060;-75
2022/11/16 19:40:05;;;;;;;28.40;13.48;;;;;;;;;;5042663;28;20052;-76
2022/11/16 19:42:31;;;;;;;28.17;14.25;;;;;;;;;;5050802;28;20044;-76
2022/11/16 19:44:57;;;;;;;24.17;12.20;;;;;;;;;;5053950;28;20051;-76
2022/11/16 19:47:25;;;;;;;27.08;12.88;;;;;;;;;;5053132;28;20036;-75
2022/11/16 19:49:52;;;;;;;21.10;12.50;;;;;;;;;;5053686;28;20045;-75
2022/11/16 19:52:18;;;;;;;39.65;19.30;;;;;;;;;;5053869;28;20035;-75
2022/11/16 19:54:44;;;;;;;29.95;15.10;;;;;;;;;;5052762;28;20071;-74
2022/11/16 19:57:11;;;;;;;22.73;12.80;;;;;;;;;;5053958;28;20412;-75
2022/11/16 19:59:38;;;;;;;15.55;7.95;;;;;;;;;;5053751;28;20040;-75
2022/11/16 20:02:04;;;;;;;9.25;5.15;;;;;;;;;;5054116;28;20045;-76
2022/11/16 20:04:33;;;;;;;9.73;5.22;;;;;;;;;;5053636;28;20041;-76
2022/11/16 20:06:59;;;;;;;10.10;6.72;;;;;;;;;;5053486;28;20071;-76
2022/11/16 20:09:26;;;;;;;15.90;6.85;;;;;;;;;;5053852;28;20051;-76
2022/11/16 20:11:53;;;;;;;12.70;8.75;;;;;;;;;;5052797;28;20059;-76
2022/11/16 20:14:20;;;;;;;12.60;8.55;;;;;;;;;;5049619;28;20043;-74
2022/11/16 20:16:49;;;;;;;13.82;7.88;;;;;;;;;;5053707;28;20045;-73
2022/11/16 20:19:16;;;;;;;13.98;7.85;;;;;;;;;;5053480;28;20504;-74
2022/11/16 20:21:43;;;;;;;12.20;7.55;;;;;;;;;;5053116;28;20037;-73
2022/11/16 20:24:10;;;;;;;14.57;7.63;;;;;;;;;;5052852;28;20049;-73
2022/11/16 20:26:40;;;;;;;19.33;9.82;;;;;;;;;;5047462;28;20056;-73
2022/11/16 20:29:06;;;;;;;16.05;9.40;;;;;;;;;;5047408;28;20044;-73
2022/11/16 20:31:33;;;;;;;12.23;7.75;;;;;;;;;;5051777;28;20049;-74
2022/11/16 20:34:00;;;;;;;13.65;8.13;;;;;;;;;;5052288;28;20033;-74
2022/11/16 20:36:28;;;;;;;17.20;9.32;;;;;;;;;;5051571;28;20557;-75
2022/11/16 20:38:55;;;;;;;11.80;7.07;;;;;;;;;;5043462;28;20048;-74
2022/11/16 20:41:25;;;;;;;12.82;7.22;;;;;;;;;;5050069;28;20052;-74
2022/11/16 20:43:52;;;;;;;10.90;7.18;;;;;;;;;;5051645;28;20053;-74
2022/11/16 20:46:20;;;;;;;10.85;6.20;;;;;;;;;;5048717;28;20072;-74
2022/11/16 20:48:46;;;;;;;16.48;8.73;;;;;;;;;;5051245;28;20076;-74
2022/11/16 20:51:15;;;;;;;13.93;6.13;;;;;;;;;;5050729;28;20053;-74
2022/11/16 20:53:42;;;;;;;11.20;7.38;;;;;;;;;;5050410;28;20120;-74
2022/11/16 20:56:09;;;;;;;16.70;8.43;;;;;;;;;;5051503;28;20048;-74
2022/11/16 20:58:35;;;;;;;16.45;8.30;;;;;;;;;;5052282;28;20102;-73
2022/11/16 21:01:02;;;;;;;13.98;8.27;;;;;;;;;;5051850;28;20040;-73
2022/11/16 21:03:28;;;;;;;12.77;8.80;;;;;;;;;;5052946;28;20075;-73
2022/11/16 21:05:54;;;;;;;11.93;7.25;;;;;;;;;;5051729;28;20496;-71
2022/11/16 21:08:21;;;;;;;10.90;7.05;;;;;;;;;;5050758;28;20041;-72
2022/11/16 21:10:47;;;;;;;13.63;7.03;;;;;;;;;;5052044;28;20076;-72
2022/11/16 21:16:04;;;;;;;13.80;7.32;;;;;;;;;;5050723;28;20055;-70
2022/11/16 21:18:30;;;;;;;11.38;6.25;;;;;;;;;;5051160;28;20056;-71
2022/11/16 21:20:57;;;;;;;12.80;6.85;;;;;;;;;;5051592;28;20102;-71
2022/11/16 21:23:24;;;;;;;14.27;7.45;;;;;;;;;;5050943;28;20037;-72
2022/11/16 21:25:50;;;;;;;18.73;7.25;;;;;;;;;;5051106;28;20500;-72
2022/11/16 21:28:16;;;;;;;15.43;5.50;;;;;;;;;;5050727;28;20055;-72
2022/11/16 21:30:42;;;;;;;8.40;5.90;;;;;;;;;;5051084;28;20056;-72
2022/11/16 21:33:08;;;;;;;8.25;4.97;;;;;;;;;;5052309;28;20060;-73
2022/11/16 21:35:35;;;;;;;8.50;4.82;;;;;;;;;;5054969;28;20132;-73
2022/11/16 21:38:01;;;;;;;13.95;4.72;;;;;;;;;;5052894;28;20102;-72
2022/11/16 21:40:27;;;;;;;8.27;4.38;;;;;;;;;;5053331;28;20045;-73
2022/11/16 21:42:53;;;;;;;12.40;4.38;;;;;;;;;;5052998;28;20037;-73
2022/11/16 21:45:19;;;;;;;10.43;5.00;;;;;;;;;;5054580;28;20079;-72
2022/11/16 21:47:45;;;;;;;13.07;5.28;;;;;;;;;;5054437;28;20140;-72
2022/11/16 21:50:11;;;;;;;9.48;4.75;;;;;;;;;;5055387;28;20045;-72
2022/11/16 21:52:37;;;;;;;12.00;5.28;;;;;;;;;;5055797;28;20044;-72
2022/11/16 21:55:03;;;;;;;10.88;5.25;;;;;;;;;;5055548;28;20526;-72
2022/11/16 21:57:30;;;;;;;15.10;5.10;;;;;;;;;;5056362;28;20128;-72
2022/11/16 21:59:56;;;;;;;13.93;4.75;;;;;;;;;;5055802;28;20044;-72
2022/11/16 22:02:22;;;;;;;13.40;5.45;;;;;;;;;;5056139;28;20071;-73
2022/11/16 22:07:35;;;;;;;10.88;5.55;;;;;;;;;;5056626;28;20117;-73
2022/11/16 22:10:08;;;;;;;17.50;7.35;;;;;;;;;;5057270;28;20566;-72
2022/11/16 22:12:35;;;;;;;11.85;7.05;;;;;;;;;;5056332;28;20118;-73
2022/11/16 22:15:01;;;;;;;13.90;7.80;;;;;;;;;;5054616;28;20152;-73
2022/11/16 22:17:28;;;;;;;15.02;8.27;;;;;;;;;;5056641;28;20071;-72
2022/11/16 22:19:54;;;;;;;14.10;6.60;;;;;;;;;;5056886;28;20075;-72
2022/11/16 22:22:20;;;;;;;8.25;5.72;;;;;;;;;;5056585;28;20480;-72
2022/11/16 22:24:47;;;;;;;12.10;5.65;;;;;;;;;;5056125;28;20119;-73
2022/11/16 22:27:16;;;;;;;11.75;5.82;;;;;;;;;;5056743;28;20072;-73
2022/11/16 22:29:42;;;;;;;9.85;5.15;;;;;;;;;;5056580;28;20049;-72
2022/11/16 22:32:08;;;;;;;12.50;6.85;;;;;;;;;;5056377;28;20033;-72
2022/11/16 22:34:35;;;;;;;13.20;6.30;;;;;;;;;;5056017;28;20051;-72
2022/11/16 22:37:01;;;;;;;10.30;5.57;;;;;;;;;;5055913;28;20491;-73
2022/11/16 22:39:27;;;;;;;9.25;5.70;;;;;;;;;;5056293;28;20049;-73
2022/11/16 22:41:53;;;;;;;9.93;6.78;;;;;;;;;;5055976;28;20029;-73
2022/11/16 22:44:20;;;;;;;14.60;8.05;;;;;;;;;;5056109;28;20133;-73
2022/11/16 22:46:48;;;;;;;16.17;7.60;;;;;;;;;;5055771;28;20045;-72
2022/11/16 22:49:14;;;;;;;14.68;8.45;;;;;;;;;;5055977;28;20488;-73
2022/11/16 22:51:40;;;;;;;15.50;9.60;;;;;;;;;;5055964;28;20116;-72
2022/11/16 22:54:07;;;;;;;15.35;9.20;;;;;;;;;;5055544;28;20119;-73
2022/11/16 22:56:33;;;;;;;15.45;9.02;;;;;;;;;;5055750;28;20041;-73
2022/11/16 22:59:01;;;;;;;11.23;6.22;;;;;;;;;;5056262;28;20526;-73
2022/11/16 23:01:27;;;;;;;10.65;6.50;;;;;;;;;;5055800;28;20567;-73
2022/11/16 23:03:54;;;;;;;10.95;6.90;;;;;;;;;;5055744;28;20496;-73
2022/11/16 23:06:20;;;;;;;14.40;6.13;;;;;;;;;;5055660;28;20040;-73
2022/11/16 23:08:46;;;;;;;12.73;6.75;;;;;;;;;;5056006;28;20037;-73
2022/11/16 23:16:43;;;;;;;14.15;7.40;;;;;;;;;;5055468;28;20120;-73
2022/11/16 23:27:28;;;;;;;12.63;7.65;;;;;;;;;;5055638;28;20094;-73
2022/11/16 23:29:54;;;;;;;13.95;7.38;;;;;;;;;;5055637;28;20037;-73
2022/11/16 23:32:21;;;;;;;35.30;18.25;;;;;;;;;;5055521;28;20128;-73
2022/11/16 23:34:47;;;;;;;29.70;16.60;;;;;;;;;;5055354;28;20041;-73
2022/11/16 23:37:13;;;;;;;22.00;11.48;;;;;;;;;;5055952;28;20098;-73